createdAt,value
2022-08-16T00:01:25.035Z,67.58
2022-08-16T00:03:55.791Z,67.77
2022-08-16T00:06:23.223Z,67.99
2022-08-16T00:08:50.469Z,68.35
2022-08-16T00:11:21.155Z,68.31
2022-08-16T00:13:53.786Z,68.36
2022-08-16T00:17:06.637Z,68.62
2022-08-16T00:19:28.271Z,68.93
2022-08-16T00:22:01.578Z,69.19
2022-08-16T00:24:31.322Z,69.10
2022-08-16T00:27:02.190Z,68.96
2022-08-16T00:29:30.288Z,69.01
2022-08-16T00:32:05.364Z,69.41
2022-08-16T00:34:44.058Z,69.19
2022-08-16T00:37:24.523Z,69.26
2022-08-16T00:39:57.225Z,69.29
2022-08-16T00:42:31.638Z,69.52
2022-08-16T00:45:27.472Z,69.31
2022-08-16T00:47:55.317Z,69.84
2022-08-16T00:50:35.882Z,69.62
2022-08-16T00:53:05.882Z,69.75
2022-08-16T00:55:37.659Z,69.86
2022-08-16T00:58:13.120Z,70.13
2022-08-16T01:00:54.154Z,70.15
2022-08-16T01:03:30.112Z,70.24
2022-08-16T01:05:57.680Z,70.45
2022-08-16T01:08:35.990Z,70.46
2022-08-16T01:11:06.485Z,70.58
2022-08-16T01:13:36.715Z,70.97
2022-08-16T01:16:19.965Z,70.77
2022-08-16T01:19:11.923Z,71.00
2022-08-16T01:21:53.104Z,71.03
2022-08-16T01:24:52.337Z,71.02
2022-08-16T01:27:28.586Z,71.38
2022-08-16T01:30:21.760Z,72.18
2022-08-16T01:33:02.449Z,71.69
2022-08-16T01:35:52.805Z,71.98
2022-08-16T01:38:35.410Z,71.90
2022-08-16T01:41:25.874Z,71.87
2022-08-16T01:44:01.192Z,71.88
2022-08-16T01:46:43.834Z,71.76
2022-08-16T01:49:22.756Z,71.97
2022-08-16T01:52:27.993Z,72.25
2022-08-16T01:54:59.349Z,72.87
2022-08-16T01:57:28.476Z,72.32
2022-08-16T01:59:59.587Z,72.66
2022-08-16T02:02:28.401Z,72.54
2022-08-16T02:04:57.448Z,72.83
2022-08-16T02:07:25.444Z,73.28
2022-08-16T02:09:57.333Z,73.51
2022-08-16T02:12:49.829Z,73.33
2022-08-16T02:15:25.173Z,73.68
2022-08-16T02:17:54.837Z,73.68
2022-08-16T02:20:26.116Z,73.62
2022-08-16T02:22:55.114Z,73.76
2022-08-16T02:25:23.153Z,73.87
2022-08-16T02:27:51.603Z,74.12
2022-08-16T02:30:37.403Z,73.91
2022-08-16T02:33:11.892Z,73.86
2022-08-16T02:35:49.863Z,73.69
2022-08-16T02:38:22.944Z,74.01
2022-08-16T02:40:51.613Z,73.97
2022-08-16T02:43:26.727Z,74.03
2022-08-16T02:45:57.525Z,74.35
2022-08-16T02:48:29.351Z,74.36
2022-08-16T02:51:10.392Z,74.67
2022-08-16T02:53:44.810Z,74.62
2022-08-16T02:56:15.564Z,74.91
2022-08-16T02:58:49.480Z,74.84
2022-08-16T03:01:25.444Z,74.96
2022-08-16T03:04:41.144Z,74.88
2022-08-16T03:06:56.438Z,75.26
2022-08-16T03:09:25.029Z,75.62
2022-08-16T03:11:51.877Z,75.65
2022-08-16T03:14:21.170Z,75.78
2022-08-16T03:16:59.117Z,75.70
2022-08-16T03:19:48.174Z,75.73
2022-08-16T03:22:27.966Z,75.75
2022-08-16T03:24:57.871Z,75.87
2022-08-16T03:27:31.374Z,75.87
2022-08-16T03:30:17.347Z,75.47
2022-08-16T03:32:51.089Z,75.30
2022-08-16T03:35:22.467Z,75.79
2022-08-16T03:38:03.052Z,75.73
2022-08-16T03:40:34.480Z,75.52
2022-08-16T03:43:20.624Z,75.34
2022-08-16T03:45:48.954Z,75.55
2022-08-16T03:48:19.826Z,75.30
2022-08-16T03:50:59.610Z,75.21
2022-08-16T03:53:37.651Z,75.13
2022-08-16T03:56:07.950Z,74.99
2022-08-16T03:58:46.279Z,75.10
2022-08-16T04:01:15.500Z,75.24
2022-08-16T04:03:43.246Z,74.69
2022-08-16T04:06:11.479Z,74.98
2022-08-16T04:08:39.651Z,74.71
2022-08-16T04:11:07.464Z,75.01
2022-08-16T04:13:59.209Z,75.03
2022-08-16T04:16:26.601Z,75.49
2022-08-16T04:19:01.960Z,75.66
2022-08-16T04:21:32.620Z,75.69
2022-08-16T04:24:00.693Z,75.69
2022-08-16T04:26:31.068Z,75.79
2022-08-16T04:29:23.244Z,75.83
2022-08-16T04:31:56.327Z,76.03
2022-08-16T04:34:27.655Z,76.08
2022-08-16T04:36:56.716Z,76.29
2022-08-16T04:39:37.046Z,76.24
2022-08-16T04:42:17.725Z,76.64
2022-08-16T04:44:53.458Z,76.67
2022-08-16T04:47:33.415Z,76.43
2022-08-16T04:50:11.583Z,76.47
2022-08-16T04:52:42.400Z,76.38
2022-08-16T04:55:17.497Z,76.53
2022-08-16T04:57:53.307Z,76.46
2022-08-16T05:00:32.609Z,76.43
2022-08-16T05:03:10.777Z,76.78
2022-08-16T05:05:45.496Z,76.56
2022-08-16T05:08:30.854Z,76.57
2022-08-16T05:11:05.298Z,76.77
2022-08-16T05:13:41.134Z,77.19
2022-08-16T05:16:21.445Z,77.16
2022-08-16T05:18:56.532Z,77.42
2022-08-16T05:21:24.683Z,77.27
2022-08-16T05:23:55.935Z,77.41
2022-08-16T05:26:29.648Z,77.53
2022-08-16T05:28:58.797Z,77.88
2022-08-16T05:31:29.851Z,77.97
2022-08-16T05:34:03.796Z,77.90
2022-08-16T05:36:34.091Z,77.89
2022-08-16T05:39:03.831Z,78.15
2022-08-16T05:41:30.937Z,77.96
2022-08-16T05:44:05.201Z,78.01
2022-08-16T05:46:47.411Z,78.21
2022-08-16T05:49:16.650Z,78.07
2022-08-16T05:51:49.173Z,78.07
2022-08-16T05:54:25.956Z,77.83
2022-08-16T05:56:55.824Z,77.79
2022-08-16T05:59:24.779Z,77.92
2022-08-16T06:01:54.057Z,77.75
2022-08-16T06:04:35.950Z,77.95
2022-08-16T06:07:08.226Z,77.83
2022-08-16T06:09:43.476Z,77.85
2022-08-16T06:12:26.662Z,77.32
2022-08-16T06:14:59.492Z,77.03
2022-08-16T06:17:41.010Z,77.28
2022-08-16T06:20:14.550Z,77.11
2022-08-16T06:22:41.477Z,77.16
2022-08-16T06:25:13.323Z,77.40
2022-08-16T06:27:57.429Z,77.37
2022-08-16T06:30:28.733Z,77.41
2022-08-16T06:32:56.431Z,77.08
2022-08-16T06:35:24.767Z,77.08
2022-08-16T06:37:52.553Z,77.02
2022-08-16T06:40:21.136Z,77.17
2022-08-16T06:43:00.504Z,77.06
2022-08-16T06:45:29.115Z,76.82
2022-08-16T06:47:57.059Z,76.82
2022-08-16T06:50:28.812Z,77.13
2022-08-16T06:53:00.535Z,77.13
2022-08-16T06:55:38.296Z,76.93
2022-08-16T06:58:08.371Z,77.16
2022-08-16T07:00:37.967Z,77.24
2022-08-16T07:03:26.706Z,77.09
2022-08-16T07:05:57.067Z,77.19
2022-08-16T07:08:27.463Z,77.38
2022-08-16T07:10:55.608Z,77.36
2022-08-16T07:13:57.645Z,77.41
2022-08-16T07:16:15.454Z,77.14
2022-08-16T07:18:58.982Z,76.32
2022-08-16T07:21:46.516Z,76.03
2022-08-16T07:24:30.375Z,74.92
2022-08-16T07:27:00.726Z,74.14
2022-08-16T07:29:31.814Z,73.80
2022-08-16T07:32:00.803Z,73.45
2022-08-16T07:34:35.756Z,72.56
2022-08-16T07:37:09.582Z,71.99
2022-08-16T07:39:43.192Z,72.06
2022-08-16T07:42:25.839Z,71.69
2022-08-16T07:44:58.125Z,71.61
2022-08-16T07:47:31.722Z,71.11
2022-08-16T07:50:07.318Z,71.08
2022-08-16T07:52:35.140Z,70.48
2022-08-16T07:55:08.162Z,69.72
2022-08-16T07:57:44.369Z,69.36
2022-08-16T08:00:26.372Z,69.18
2022-08-16T08:02:57.042Z,68.46
2022-08-16T08:05:35.726Z,68.03
2022-08-16T08:08:11.590Z,67.70
2022-08-16T08:10:52.256Z,67.50
2022-08-16T08:13:19.098Z,67.18
2022-08-16T08:15:52.731Z,67.44
2022-08-16T08:18:30.128Z,67.57
2022-08-16T08:20:59.529Z,68.00
2022-08-16T08:23:27.817Z,66.93
2022-08-16T08:25:56.013Z,66.94
2022-08-16T08:28:23.311Z,66.59
2022-08-16T08:31:00.877Z,66.25
2022-08-16T08:33:29.298Z,66.54
2022-08-16T08:36:01.888Z,66.28
2022-08-16T08:38:43.936Z,66.16
2022-08-16T08:41:12.854Z,66.33
2022-08-16T08:43:41.584Z,66.28
2022-08-16T08:46:12.438Z,66.40
2022-08-16T08:49:01.927Z,66.02
2022-08-16T08:51:35.492Z,65.84
2022-08-16T08:54:07.064Z,65.77
2022-08-16T08:56:45.985Z,65.92
2022-08-16T08:59:20.294Z,65.73
2022-08-16T09:01:57.155Z,65.06
2022-08-16T09:04:27.415Z,64.45
2022-08-16T09:06:55.690Z,64.06
2022-08-16T09:09:23.522Z,63.28
2022-08-16T09:12:03.959Z,62.34
2022-08-16T09:14:34.764Z,62.34
2022-08-16T09:17:14.200Z,62.03
2022-08-16T09:19:55.269Z,62.08
2022-08-16T09:22:28.085Z,61.83
2022-08-16T09:25:09.702Z,61.63
2022-08-16T09:27:57.383Z,61.46
2022-08-16T09:30:33.888Z,61.32
2022-08-16T09:33:06.779Z,61.49
2022-08-16T09:35:39.120Z,61.88
2022-08-16T09:38:10.077Z,61.42
2022-08-16T09:40:43.296Z,61.44
2022-08-16T09:43:37.647Z,61.03
2022-08-16T09:46:03.820Z,60.48
2022-08-16T09:48:53.048Z,60.66
2022-08-16T09:51:30.848Z,61.12
2022-08-16T09:54:09.607Z,60.90
2022-08-16T09:56:39.575Z,60.42
2022-08-16T09:59:21.148Z,59.82
2022-08-16T10:01:51.696Z,59.95
2022-08-16T10:04:30.388Z,59.64
2022-08-16T10:07:14.837Z,59.57
2022-08-16T10:09:55.833Z,58.95
2022-08-16T10:12:55.451Z,58.55
2022-08-16T10:15:22.924Z,57.67
2022-08-16T10:18:01.471Z,57.90
2022-08-16T10:20:35.048Z,57.35
2022-08-16T10:23:07.604Z,57.41
2022-08-16T10:27:00.533Z,57.28
2022-08-16T10:28:31.932Z,57.01
2022-08-16T10:31:05.811Z,57.17
2022-08-16T10:33:35.046Z,56.69
2022-08-16T10:36:09.044Z,56.38
2022-08-16T10:38:39.173Z,56.78
2022-08-16T10:41:11.244Z,56.71
2022-08-16T10:43:43.510Z,56.63
2022-08-16T10:46:39.877Z,56.81
2022-08-16T10:49:01.231Z,56.80
2022-08-16T10:51:34.419Z,57.13
2022-08-16T10:54:29.753Z,56.02
2022-08-16T10:56:59.406Z,56.49
2022-08-16T10:59:32.578Z,56.57
2022-08-16T11:07:43.011Z,56.65
2022-08-16T11:16:00.766Z,56.14
2022-08-16T11:18:48.526Z,56.42
2022-08-16T11:21:29.405Z,56.22
2022-08-16T11:23:59.703Z,56.15
2022-08-16T11:26:27.765Z,56.08
2022-08-16T11:29:13.271Z,56.04
2022-08-16T11:31:45.424Z,56.37
2022-08-16T11:34:19.854Z,55.33
2022-08-16T11:36:53.875Z,54.79
2022-08-16T11:39:32.201Z,54.89
2022-08-16T11:42:01.340Z,54.63
2022-08-16T11:44:52.100Z,54.19
2022-08-16T11:47:16.304Z,54.49
2022-08-16T11:49:43.188Z,53.29
2022-08-16T11:52:10.760Z,52.19
2022-08-16T11:54:37.672Z,52.46
2022-08-16T11:57:09.140Z,52.30
2022-08-16T11:59:40.004Z,51.67
2022-08-16T12:02:32.522Z,51.53
2022-08-16T12:04:56.541Z,50.49
2022-08-16T12:07:24.185Z,49.84
2022-08-16T12:09:54.084Z,49.36
2022-08-16T12:12:23.373Z,48.92
2022-08-16T12:15:00.368Z,48.23
2022-08-16T12:17:31.811Z,48.05
2022-08-16T12:20:00.924Z,48.07
2022-08-16T12:22:29.277Z,48.59
2022-08-16T12:24:56.757Z,48.44
2022-08-16T12:27:26.259Z,48.10
2022-08-16T12:29:54.829Z,48.77
2022-08-16T12:32:38.039Z,47.46
2022-08-16T12:35:14.425Z,48.29
2022-08-16T12:37:43.342Z,47.87
2022-08-16T12:40:23.845Z,48.06
2022-08-16T12:42:55.807Z,47.34
2022-08-16T12:45:30.426Z,48.10
2022-08-16T12:48:33.156Z,48.60
2022-08-16T12:51:13.422Z,48.86
2022-08-16T12:53:45.255Z,48.48
2022-08-16T12:56:14.129Z,48.53
2022-08-16T12:58:49.017Z,48.82
2022-08-16T13:01:26.149Z,48.89
2022-08-16T13:04:20.168Z,48.65
2022-08-16T13:06:44.437Z,48.90
2022-08-16T13:09:21.624Z,48.61
2022-08-16T13:12:09.713Z,48.69
2022-08-16T13:14:41.423Z,47.80
2022-08-16T13:17:18.794Z,47.52
2022-08-16T13:22:34.676Z,47.56
2022-08-16T13:25:02.012Z,47.51
2022-08-16T13:27:59.845Z,47.75
2022-08-16T13:30:35.533Z,47.92
2022-08-16T13:33:12.417Z,48.04
2022-08-16T13:35:56.343Z,47.91
2022-08-16T13:38:25.815Z,47.70
2022-08-16T13:40:57.451Z,47.58
2022-08-16T13:43:32.503Z,47.40
2022-08-16T13:46:04.664Z,47.87
2022-08-16T13:48:42.517Z,47.64
2022-08-16T13:51:17.053Z,47.30
2022-08-16T13:53:58.013Z,47.43
2022-08-16T13:56:37.284Z,46.95
2022-08-16T13:59:19.326Z,46.89
2022-08-16T14:01:59.844Z,46.66
2022-08-16T14:04:34.343Z,46.64
2022-08-16T14:07:05.747Z,47.19
2022-08-16T14:09:34.648Z,47.12
2022-08-16T14:12:09.598Z,47.52
2022-08-16T14:14:36.891Z,47.62
2022-08-16T14:17:04.471Z,47.61
2022-08-16T14:19:31.460Z,47.10
2022-08-16T14:22:14.456Z,46.92
2022-08-16T14:24:45.363Z,47.21
2022-08-16T14:27:18.813Z,47.27
2022-08-16T14:29:49.814Z,47.35
2022-08-16T14:32:32.490Z,47.08
2022-08-16T14:35:36.694Z,47.12
2022-08-16T14:38:18.336Z,46.99
2022-08-16T14:40:53.188Z,47.07
2022-08-16T14:43:25.092Z,47.10
2022-08-16T14:45:54.911Z,47.28
2022-08-16T14:48:26.267Z,47.70
2022-08-16T14:50:55.215Z,48.07
2022-08-16T14:53:24.405Z,48.08
2022-08-16T14:55:51.607Z,48.04
2022-08-16T14:58:20.220Z,48.33
2022-08-16T15:01:02.166Z,48.96
2022-08-16T15:03:32.959Z,49.09
2022-08-16T15:06:01.751Z,48.82
2022-08-16T15:08:36.549Z,49.38
2022-08-16T15:11:07.804Z,48.84
2022-08-16T15:13:35.184Z,49.57
2022-08-16T15:16:03.936Z,49.35
2022-08-16T15:18:33.693Z,49.85
2022-08-16T15:21:02.281Z,49.42
2022-08-16T15:23:33.699Z,49.57
2022-08-16T15:26:03.169Z,49.74
2022-08-16T15:28:38.353Z,49.99
2022-08-16T15:31:09.427Z,50.23
2022-08-16T15:33:44.249Z,50.47
2022-08-16T15:36:17.592Z,50.62
2022-08-16T15:39:03.022Z,50.75
2022-08-16T15:41:43.016Z,51.04
2022-08-16T15:44:22.272Z,50.74
2022-08-16T15:46:56.729Z,50.93
2022-08-16T15:49:37.578Z,50.71
2022-08-16T15:52:32.918Z,51.21
2022-08-16T15:55:13.042Z,51.00
2022-08-16T15:57:51.453Z,51.20
2022-08-16T16:00:20.870Z,51.39
2022-08-16T16:02:49.543Z,51.85
2022-08-16T16:05:17.219Z,51.75
2022-08-16T16:07:56.603Z,52.05
2022-08-16T16:10:28.364Z,52.93
2022-08-16T16:13:00.609Z,54.03
2022-08-16T16:15:33.129Z,55.38
2022-08-16T16:18:05.085Z,56.05
2022-08-16T16:20:39.014Z,55.98
2022-08-16T16:23:10.612Z,56.42
2022-08-16T16:25:43.947Z,56.36
2022-08-16T16:29:08.373Z,56.32
2022-08-16T16:31:09.974Z,56.78
2022-08-16T16:33:43.324Z,56.93
2022-08-16T16:36:15.365Z,57.68
2022-08-16T16:38:47.646Z,57.89
2022-08-16T16:41:22.673Z,58.48
2022-08-16T16:43:53.615Z,59.17
2022-08-16T16:46:42.360Z,59.57
2022-08-16T16:49:13.905Z,60.12
2022-08-16T16:51:44.872Z,60.21
2022-08-16T16:54:27.734Z,60.02
2022-08-16T16:56:57.983Z,60.31
2022-08-16T16:59:25.664Z,60.60
2022-08-16T17:02:38.976Z,60.82
2022-08-16T17:04:45.551Z,60.97
2022-08-16T17:07:14.748Z,61.28
2022-08-16T17:09:41.672Z,60.21
2022-08-16T17:12:23.598Z,60.41
2022-08-16T17:14:56.659Z,60.29
2022-08-16T17:17:24.632Z,60.46
2022-08-16T17:19:51.909Z,60.17
2022-08-16T17:22:21.626Z,60.06
2022-08-16T17:24:52.522Z,60.22
2022-08-16T17:27:32.353Z,59.94
2022-08-16T17:30:03.113Z,60.13
2022-08-16T17:32:47.928Z,60.14
2022-08-16T17:35:22.896Z,60.25
2022-08-16T17:37:51.875Z,60.34
2022-08-16T17:40:40.875Z,60.16
2022-08-16T17:43:20.123Z,60.30
2022-08-16T17:45:48.404Z,60.74
2022-08-16T17:48:15.563Z,60.54
2022-08-16T17:50:43.527Z,60.49
2022-08-16T17:53:12.088Z,60.73
2022-08-16T17:55:42.792Z,60.53
2022-08-16T17:58:22.822Z,60.59
2022-08-16T18:00:53.885Z,60.69
2022-08-16T18:04:02.230Z,61.04
2022-08-16T18:06:18.903Z,61.05
2022-08-16T18:08:51.146Z,61.13
2022-08-16T18:11:26.023Z,61.12
2022-08-16T18:13:54.513Z,61.49
2022-08-16T18:16:21.401Z,61.98
2022-08-16T18:18:48.209Z,62.10
2022-08-16T18:21:34.636Z,62.03
2022-08-16T18:24:01.677Z,61.94
2022-08-16T18:26:28.736Z,62.40
2022-08-16T18:28:55.702Z,62.32
2022-08-16T18:31:22.924Z,62.18
2022-08-16T18:33:54.794Z,62.24
2022-08-16T18:36:24.609Z,62.38
2022-08-16T18:38:53.979Z,62.31
2022-08-16T18:41:24.813Z,62.38
2022-08-16T18:44:22.549Z,62.30
2022-08-16T18:46:45.968Z,62.41
2022-08-16T18:49:19.039Z,62.55
2022-08-16T18:51:46.417Z,62.49
2022-08-16T18:54:18.211Z,62.72
2022-08-16T18:56:54.308Z,62.52
2022-08-16T18:59:29.884Z,63.14
2022-08-16T19:01:59.819Z,63.13
2022-08-16T19:04:50.636Z,63.58
2022-08-16T19:07:18.314Z,63.96
2022-08-16T19:09:45.773Z,64.39
2022-08-16T19:12:16.019Z,65.21
2022-08-16T19:14:45.630Z,65.69
2022-08-16T19:17:12.615Z,66.02
2022-08-16T19:19:39.439Z,66.26
2022-08-16T19:22:06.706Z,66.39
2022-08-16T19:24:33.621Z,66.52
2022-08-16T19:27:01.607Z,67.04
2022-08-16T19:29:29.220Z,67.31
2022-08-16T19:31:56.442Z,67.46
2022-08-16T19:34:23.264Z,67.85
2022-08-16T19:36:50.093Z,68.03
2022-08-16T19:39:17.853Z,68.31
2022-08-16T19:41:52.031Z,68.54
2022-08-16T19:44:22.424Z,68.89
2022-08-16T19:46:49.819Z,69.28
2022-08-16T19:49:17.177Z,69.56
2022-08-16T19:51:47.106Z,70.39
2022-08-16T19:54:14.507Z,70.09
2022-08-16T19:56:41.380Z,70.22
2022-08-16T19:59:39.534Z,70.90
2022-08-16T20:01:55.691Z,70.86
2022-08-16T20:04:24.713Z,71.31
2022-08-16T20:06:53.285Z,71.40
2022-08-16T20:09:22.491Z,71.63
2022-08-16T20:11:52.496Z,71.72
2022-08-16T20:14:24.558Z,72.22
2022-08-16T20:16:59.110Z,72.20
2022-08-16T20:19:29.245Z,72.17
2022-08-16T20:22:05.001Z,72.31
2022-08-16T20:24:35.191Z,72.44
2022-08-16T20:27:07.681Z,72.72
2022-08-16T20:29:35.053Z,72.57
2022-08-16T20:32:04.382Z,72.93
2022-08-16T20:34:31.368Z,72.86
2022-08-16T20:36:58.263Z,73.09
2022-08-16T20:39:25.234Z,73.36
2022-08-16T20:41:52.148Z,73.36
2022-08-16T20:44:22.886Z,74.22
2022-08-16T20:46:52.375Z,73.94
2022-08-16T20:49:19.225Z,74.08
2022-08-16T20:51:49.579Z,74.44
2022-08-16T20:54:18.110Z,75.26
2022-08-16T20:56:44.935Z,75.84
2022-08-16T20:59:11.816Z,76.30
2022-08-16T21:01:47.027Z,76.92
2022-08-16T21:04:21.764Z,77.16
2022-08-16T21:06:53.668Z,77.63
2022-08-16T21:09:33.646Z,77.61
2022-08-16T21:12:14.484Z,78.36
2022-08-16T21:14:45.189Z,78.20
2022-08-16T21:17:13.430Z,78.37
2022-08-16T21:19:41.250Z,78.89
2022-08-16T21:22:17.827Z,79.65
2022-08-16T21:24:46.737Z,79.37
2022-08-16T21:27:17.403Z,79.25
2022-08-16T21:29:46.172Z,79.35
2022-08-16T21:32:34.964Z,79.52
2022-08-16T21:35:15.592Z,79.45
2022-08-16T21:37:43.268Z,79.66
2022-08-16T21:40:33.734Z,79.73
2022-08-16T21:43:13.982Z,79.75
2022-08-16T21:45:43.352Z,79.89
2022-08-16T21:48:11.455Z,80.02
2022-08-16T21:50:40.560Z,80.04
2022-08-16T21:53:17.666Z,79.90
2022-08-16T21:55:53.620Z,80.59
2022-08-16T21:58:20.895Z,80.13
2022-08-16T22:00:48.328Z,80.21
2022-08-16T22:03:16.871Z,80.70
2022-08-16T22:05:46.770Z,80.39
2022-08-16T22:08:34.338Z,80.35
2022-08-16T22:11:06.312Z,80.59
2022-08-16T22:13:36.778Z,80.42
2022-08-16T22:16:07.504Z,80.72
2022-08-16T22:18:34.386Z,80.96
2022-08-16T22:21:01.227Z,80.42
2022-08-16T22:23:29.175Z,80.59
2022-08-16T22:25:56.641Z,81.26
2022-08-16T22:28:25.421Z,80.86
2022-08-16T22:30:52.721Z,80.94
2022-08-16T22:33:24.621Z,80.92
2022-08-16T22:35:59.692Z,81.02
2022-08-16T22:38:54.958Z,81.09
2022-08-16T22:41:15.585Z,80.98
2022-08-16T22:43:45.629Z,80.85
2022-08-16T22:46:12.845Z,80.82
2022-08-16T22:48:42.625Z,80.92
2022-08-16T22:51:10.268Z,81.08
2022-08-16T22:53:37.644Z,80.92
2022-08-16T22:56:05.375Z,80.81
2022-08-16T22:58:36.464Z,80.77
2022-08-16T23:01:06.161Z,81.18
2022-08-16T23:03:33.659Z,81.10
2022-08-16T23:06:00.952Z,81.16
2022-08-16T23:08:38.234Z,81.20
2022-08-16T23:11:21.256Z,81.32
2022-08-16T23:13:55.429Z,81.41
2022-08-16T23:16:32.356Z,81.27
2022-08-16T23:19:10.499Z,81.43
2022-08-16T23:21:42.753Z,81.33
2022-08-16T23:24:11.762Z,81.39
2022-08-16T23:26:48.202Z,81.60
2022-08-16T23:29:22.439Z,81.96
2022-08-16T23:31:59.600Z,82.25
2022-08-16T23:34:28.742Z,82.15
2022-08-16T23:36:56.737Z,82.08
2022-08-16T23:39:24.345Z,82.50
2022-08-16T23:41:52.447Z,82.61
2022-08-16T23:44:55.537Z,82.58
2022-08-16T23:47:06.467Z,82.78
2022-08-16T23:49:58.986Z,82.77
2022-08-16T23:52:38.409Z,82.88
2022-08-16T23:55:08.999Z,82.69
2022-08-16T23:57:35.843Z,82.93
